createdAt,value
2018-10-12T00:00:10.553Z,63.40
2018-10-12T00:02:39.859Z,63.10
2018-10-12T00:05:08.771Z,63.20
2018-10-12T00:07:37.527Z,63.40
2018-10-12T00:10:06.494Z,63.50
2018-10-12T00:12:35.291Z,63.70
2018-10-12T00:15:04.114Z,64.00
2018-10-12T00:17:32.863Z,64.20
2018-10-12T00:20:01.627Z,64.10
2018-10-12T00:22:30.347Z,63.90
2018-10-12T00:24:59.204Z,64.40
2018-10-12T00:27:27.969Z,64.40
2018-10-12T00:29:56.732Z,64.70
2018-10-12T00:32:25.439Z,64.70
2018-10-12T00:34:54.171Z,64.50
2018-10-12T00:37:22.890Z,64.70
2018-10-12T00:39:51.638Z,65.00
2018-10-12T00:42:20.405Z,65.10
2018-10-12T00:44:49.283Z,64.80
2018-10-12T00:47:18.151Z,64.90
2018-10-12T00:49:46.863Z,64.80
2018-10-12T00:52:15.640Z,65.30
2018-10-12T00:54:44.497Z,65.20
2018-10-12T00:57:13.295Z,65.30
2018-10-12T00:59:42.102Z,64.70
2018-10-12T01:02:11.009Z,64.80
2018-10-12T01:04:39.733Z,64.50
2018-10-12T01:07:08.414Z,64.40
2018-10-12T01:09:37.149Z,64.50
2018-10-12T01:12:31.525Z,64.60
2018-10-12T01:15:00.796Z,64.50
2018-10-12T01:17:29.996Z,65.10
2018-10-12T01:19:59.039Z,65.50
2018-10-12T01:22:28.892Z,65.80
2018-10-12T01:24:58.752Z,65.80
2018-10-12T01:27:27.819Z,65.10
2018-10-12T01:29:56.594Z,64.60
2018-10-12T01:32:30.487Z,65.00
2018-10-12T01:34:59.149Z,64.00
2018-10-12T01:37:27.975Z,64.00
2018-10-12T01:39:56.865Z,64.20
2018-10-12T01:42:25.555Z,65.10
2018-10-12T01:44:54.405Z,65.30
2018-10-12T01:47:23.105Z,65.50
2018-10-12T01:49:51.919Z,65.60
2018-10-12T01:52:20.861Z,65.80
2018-10-12T01:54:49.674Z,65.90
2018-10-12T01:57:18.442Z,65.10
2018-10-12T01:59:47.273Z,64.50
2018-10-12T02:02:16.027Z,63.70
2018-10-12T02:04:44.851Z,63.40
2018-10-12T02:07:13.695Z,63.70
2018-10-12T02:09:42.476Z,64.00
2018-10-12T02:12:11.310Z,64.00
2018-10-12T02:14:40.128Z,64.50
2018-10-12T02:17:08.992Z,65.50
2018-10-12T02:19:37.789Z,65.30
2018-10-12T02:22:06.541Z,65.50
2018-10-12T02:24:35.253Z,65.50
2018-10-12T02:27:03.969Z,66.60
2018-10-12T02:29:32.685Z,66.60
2018-10-12T02:32:01.411Z,68.40
2018-10-12T02:34:30.136Z,68.30
2018-10-12T02:36:59.329Z,73.20
2018-10-12T02:39:28.132Z,75.90
2018-10-12T02:41:56.918Z,78.50
2018-10-12T02:44:25.709Z,80.90
2018-10-12T02:46:54.418Z,82.70
2018-10-12T02:49:23.146Z,84.40
2018-10-12T02:51:51.907Z,86.00
2018-10-12T02:54:20.735Z,88.20
2018-10-12T02:56:49.468Z,90.40
2018-10-12T02:59:18.217Z,92.10
2018-10-12T03:01:47.064Z,93.90
2018-10-12T03:04:15.836Z,96.00
2018-10-12T03:06:44.605Z,97.90
2018-10-12T03:09:13.525Z,99.40
2018-10-12T03:11:42.418Z,99.90
2018-10-12T03:14:11.185Z,99.90
2018-10-12T03:16:40.043Z,99.90
2018-10-12T03:19:08.850Z,99.90
2018-10-12T03:21:37.509Z,99.90
2018-10-12T03:24:06.271Z,99.90
2018-10-12T03:26:35.031Z,99.90
2018-10-12T03:29:03.791Z,99.90
2018-10-12T03:31:32.584Z,99.90
2018-10-12T03:34:01.888Z,99.90
2018-10-12T03:36:30.755Z,99.90
2018-10-12T03:38:59.526Z,99.90
2018-10-12T03:41:28.449Z,99.90
2018-10-12T03:43:57.245Z,99.90
2018-10-12T03:46:26.029Z,99.90
2018-10-12T03:48:54.800Z,99.90
2018-10-12T03:51:23.618Z,99.90
2018-10-12T03:53:52.289Z,99.90
2018-10-12T03:56:21.028Z,99.90
2018-10-12T03:58:49.825Z,99.90
2018-10-12T04:01:18.557Z,99.90
2018-10-12T04:03:47.338Z,99.90
2018-10-12T04:06:16.091Z,99.90
2018-10-12T04:08:44.909Z,99.90
2018-10-12T04:11:13.691Z,99.90
2018-10-12T04:13:42.423Z,99.90
2018-10-12T04:16:11.266Z,99.90
2018-10-12T04:18:39.966Z,99.90
2018-10-12T04:21:08.839Z,99.90
2018-10-12T04:23:37.572Z,99.90
2018-10-12T04:26:06.383Z,99.90
2018-10-12T04:28:35.096Z,99.90
2018-10-12T04:31:03.828Z,99.90
2018-10-12T04:33:32.610Z,99.90
2018-10-12T04:36:01.372Z,99.90
2018-10-12T04:38:40.028Z,99.90
2018-10-12T04:41:19.155Z,99.90
2018-10-12T04:43:49.331Z,99.90
2018-10-12T04:46:27.544Z,99.90
2018-10-12T04:48:56.459Z,99.90
2018-10-12T04:51:31.620Z,99.90
2018-10-12T04:54:00.543Z,99.90
2018-10-12T04:56:29.308Z,99.90
2018-10-12T04:58:58.056Z,99.90
2018-10-12T05:01:26.837Z,99.90
2018-10-12T05:03:55.642Z,99.90
2018-10-12T05:06:24.414Z,99.90
2018-10-12T05:08:53.201Z,99.90
2018-10-12T05:11:21.979Z,99.90
2018-10-12T05:13:50.779Z,99.90
2018-10-12T05:16:19.574Z,99.90
2018-10-12T05:18:48.249Z,99.90
2018-10-12T05:21:17.078Z,99.90
2018-10-12T05:23:45.887Z,99.90
2018-10-12T05:26:14.664Z,99.90
2018-10-12T05:28:43.463Z,99.90
2018-10-12T05:31:12.283Z,99.90
2018-10-12T05:33:41.041Z,99.90
2018-10-12T05:36:09.894Z,99.90
2018-10-12T05:38:38.618Z,99.90
2018-10-12T05:41:07.775Z,99.90
2018-10-12T05:43:36.549Z,99.90
2018-10-12T05:46:05.179Z,99.90
2018-10-12T05:48:45.065Z,99.90
2018-10-12T05:51:14.165Z,99.90
2018-10-12T05:53:42.933Z,99.90
2018-10-12T05:56:14.064Z,99.90
2018-10-12T05:58:43.830Z,99.90
2018-10-12T06:01:12.579Z,99.90
2018-10-12T06:03:41.324Z,99.90
2018-10-12T06:06:09.986Z,99.90
2018-10-12T06:08:38.901Z,99.90
2018-10-12T06:11:08.026Z,99.90
2018-10-12T06:13:36.940Z,99.90
2018-10-12T06:16:05.809Z,99.90
2018-10-12T06:18:34.506Z,99.90
2018-10-12T06:21:03.376Z,99.90
2018-10-12T06:23:32.171Z,99.90
2018-10-12T06:26:00.970Z,99.90
2018-10-12T06:28:29.899Z,99.90
2018-10-12T06:30:58.659Z,99.90
2018-10-12T06:33:27.401Z,99.90
2018-10-12T06:35:56.175Z,99.90
2018-10-12T06:38:24.878Z,99.90
2018-10-12T06:40:53.722Z,99.90
2018-10-12T06:43:22.601Z,99.90
2018-10-12T06:45:51.434Z,99.90
2018-10-12T06:48:20.184Z,99.90
2018-10-12T06:50:48.987Z,99.90
2018-10-12T06:53:17.794Z,99.90
2018-10-12T06:55:46.539Z,99.90
2018-10-12T06:58:15.329Z,99.90
2018-10-12T07:00:44.295Z,99.90
2018-10-12T07:03:13.082Z,99.90
2018-10-12T07:05:41.936Z,99.90
2018-10-12T07:08:10.676Z,99.90
2018-10-12T07:10:39.471Z,99.90
2018-10-12T07:13:08.447Z,99.90
2018-10-12T07:15:37.356Z,99.90
2018-10-12T07:18:06.121Z,99.90
2018-10-12T07:20:34.874Z,99.90
2018-10-12T07:23:03.714Z,99.90
2018-10-12T07:25:32.608Z,99.90
2018-10-12T07:28:01.412Z,99.90
2018-10-12T07:30:30.212Z,99.90
2018-10-12T07:32:58.976Z,99.90
2018-10-12T07:35:27.707Z,99.90
2018-10-12T07:37:56.585Z,99.90
2018-10-12T07:40:25.468Z,99.90
2018-10-12T07:42:54.300Z,99.90
2018-10-12T07:45:23.166Z,99.90
2018-10-12T07:47:51.907Z,99.90
2018-10-12T07:50:20.748Z,99.90
2018-10-12T07:52:49.506Z,99.90
2018-10-12T07:55:18.245Z,99.90
2018-10-12T07:57:47.058Z,99.90
2018-10-12T08:00:15.963Z,99.90
2018-10-12T08:02:44.663Z,99.90
2018-10-12T08:05:13.482Z,99.90
2018-10-12T08:07:42.185Z,99.90
2018-10-12T08:10:10.911Z,99.90
2018-10-12T08:12:39.616Z,99.90
2018-10-12T08:15:08.444Z,99.90
2018-10-12T08:17:37.166Z,99.90
2018-10-12T08:20:07.113Z,99.90
2018-10-12T08:22:35.925Z,99.90
2018-10-12T08:25:04.803Z,99.90
2018-10-12T08:27:33.571Z,99.90
2018-10-12T08:30:02.390Z,99.90
2018-10-12T08:32:31.243Z,99.90
2018-10-12T08:35:00.069Z,99.90
2018-10-12T08:37:28.787Z,99.90
2018-10-12T08:39:57.558Z,99.90
2018-10-12T08:42:26.342Z,99.90
2018-10-12T08:44:55.030Z,99.90
2018-10-12T08:47:23.831Z,99.90
2018-10-12T08:49:52.710Z,99.90
2018-10-12T08:52:21.571Z,99.90
2018-10-12T08:54:50.331Z,99.90
2018-10-12T08:57:19.103Z,99.90
2018-10-12T08:59:47.925Z,99.90
2018-10-12T09:02:16.655Z,99.90
2018-10-12T09:04:45.435Z,99.90
2018-10-12T09:07:14.303Z,99.90
2018-10-12T09:09:43.180Z,99.90
2018-10-12T09:12:11.831Z,99.90
2018-10-12T09:14:40.578Z,99.90
2018-10-12T09:17:09.440Z,99.90
2018-10-12T09:19:38.274Z,99.90
2018-10-12T09:22:07.251Z,99.90
2018-10-12T09:24:36.066Z,99.90
2018-10-12T09:27:04.852Z,99.90
2018-10-12T09:29:33.618Z,99.90
2018-10-12T09:32:02.264Z,99.90
2018-10-12T09:34:31.005Z,99.90
2018-10-12T09:36:59.903Z,99.90
2018-10-12T09:39:28.708Z,99.90
2018-10-12T09:41:57.491Z,99.90
2018-10-12T09:44:26.342Z,99.90
2018-10-12T09:46:55.145Z,99.90
2018-10-12T09:49:23.843Z,99.90
2018-10-12T09:51:52.623Z,99.90
2018-10-12T09:54:21.293Z,99.90
2018-10-12T09:56:55.282Z,99.90
2018-10-12T09:59:24.105Z,99.90
2018-10-12T10:01:57.995Z,99.90
2018-10-12T10:04:30.540Z,99.90
2018-10-12T10:06:59.982Z,99.90
2018-10-12T10:09:29.258Z,99.00
2018-10-12T10:11:58.323Z,98.50
2018-10-12T10:14:27.243Z,97.70
2018-10-12T10:16:55.976Z,97.30
2018-10-12T10:19:24.747Z,97.70
2018-10-12T10:21:53.450Z,97.90
2018-10-12T10:24:22.237Z,97.60
2018-10-12T10:26:50.879Z,97.20
2018-10-12T10:29:19.520Z,96.20
2018-10-12T10:31:48.142Z,95.60
2018-10-12T10:34:16.990Z,94.80
2018-10-12T10:36:45.690Z,94.20
2018-10-12T10:39:14.755Z,94.00
2018-10-12T10:41:43.450Z,93.50
2018-10-12T10:44:12.126Z,93.10
2018-10-12T10:46:40.732Z,92.80
2018-10-12T10:49:10.227Z,92.40
2018-10-12T10:51:38.965Z,91.50
2018-10-12T10:54:07.642Z,90.90
2018-10-12T10:56:36.307Z,89.80
2018-10-12T10:59:05.795Z,88.80
2018-10-12T11:01:34.518Z,89.50
2018-10-12T11:04:03.230Z,87.70
2018-10-12T11:06:32.297Z,88.20
2018-10-12T11:09:00.950Z,87.10
2018-10-12T11:11:29.830Z,86.90
2018-10-12T11:13:58.851Z,87.90
2018-10-12T11:16:27.522Z,87.90
2018-10-12T11:18:56.205Z,86.60
2018-10-12T11:21:24.884Z,86.60
2018-10-12T11:23:53.739Z,85.30
2018-10-12T11:26:22.456Z,85.30
2018-10-12T11:28:51.168Z,83.60
2018-10-12T11:31:19.874Z,81.50
2018-10-12T11:33:48.795Z,80.30
2018-10-12T11:36:17.515Z,79.50
2018-10-12T11:38:46.202Z,80.30
2018-10-12T11:41:14.986Z,79.30
2018-10-12T11:43:43.865Z,78.40
2018-10-12T11:46:12.468Z,78.80
2018-10-12T11:48:41.392Z,78.90
2018-10-12T11:51:10.066Z,77.70
2018-10-12T11:53:38.689Z,77.60
2018-10-12T11:56:07.774Z,77.40
2018-10-12T11:58:36.718Z,76.20
2018-10-12T12:01:05.414Z,76.20
2018-10-12T12:03:34.152Z,76.30
2018-10-12T12:06:02.891Z,76.80
2018-10-12T12:08:31.532Z,75.30
2018-10-12T12:11:00.212Z,74.80
2018-10-12T12:13:28.940Z,73.80
2018-10-12T12:15:57.574Z,74.50
2018-10-12T12:18:26.307Z,73.70
2018-10-12T12:21:09.226Z,74.40
2018-10-12T12:26:31.171Z,72.20
2018-10-12T12:28:59.847Z,73.10
2018-10-12T12:31:28.530Z,72.10
2018-10-12T12:33:57.222Z,73.20
2018-10-12T12:36:26.035Z,72.10
2018-10-12T12:38:54.691Z,72.20
2018-10-12T12:41:23.330Z,87.00
2018-10-12T12:43:52.546Z,73.20
2018-10-12T12:46:21.255Z,73.50
2018-10-12T12:48:50.397Z,71.10
2018-10-12T12:51:18.612Z,72.20
2018-10-12T12:53:47.361Z,71.90
2018-10-12T12:56:16.074Z,72.00
2018-10-12T12:58:45.226Z,72.80
2018-10-12T13:01:13.883Z,72.30
2018-10-12T13:03:42.598Z,72.90
2018-10-12T13:06:11.302Z,75.00
2018-10-12T13:08:39.936Z,75.30
2018-10-12T13:11:09.019Z,76.00
2018-10-12T13:13:37.764Z,75.80
2018-10-12T13:16:06.649Z,75.70
2018-10-12T13:18:35.401Z,76.60
2018-10-12T13:21:04.215Z,75.20
2018-10-12T13:23:32.995Z,74.90
2018-10-12T13:26:01.915Z,75.30
2018-10-12T13:28:30.520Z,75.20
2018-10-12T13:30:59.274Z,76.50
2018-10-12T13:33:28.039Z,76.50
2018-10-12T13:35:56.926Z,76.30
2018-10-12T13:38:25.748Z,76.30
2018-10-12T13:40:54.480Z,76.30
2018-10-12T13:43:23.254Z,75.90
2018-10-12T13:45:51.969Z,75.40
2018-10-12T13:48:20.741Z,75.40
2018-10-12T13:50:49.511Z,75.70
2018-10-12T13:53:18.226Z,74.30
2018-10-12T13:55:47.035Z,74.60
2018-10-12T13:58:15.893Z,74.50
2018-10-12T14:00:44.764Z,74.70
2018-10-12T14:03:13.486Z,73.80
2018-10-12T14:05:42.213Z,74.00
2018-10-12T14:08:11.084Z,74.10
2018-10-12T14:10:39.788Z,73.50
2018-10-12T14:13:08.578Z,72.70
2018-10-12T14:15:37.269Z,72.20
2018-10-12T14:18:06.313Z,73.20
2018-10-12T14:20:35.099Z,73.70
2018-10-12T14:23:03.981Z,72.90
2018-10-12T14:25:32.951Z,73.30
2018-10-12T14:28:01.769Z,72.20
2018-10-12T14:30:30.524Z,72.40
2018-10-12T14:32:59.299Z,74.10
2018-10-12T14:35:28.023Z,73.40
2018-10-12T14:37:56.851Z,72.90
2018-10-12T14:40:25.510Z,72.70
2018-10-12T14:42:54.302Z,72.40
2018-10-12T14:45:23.084Z,73.20
2018-10-12T14:47:51.964Z,72.40
2018-10-12T14:50:20.732Z,72.20
2018-10-12T14:52:49.485Z,74.00
2018-10-12T14:55:18.167Z,76.80
2018-10-12T14:57:46.991Z,79.40
2018-10-12T15:00:15.804Z,81.60
2018-10-12T15:02:44.597Z,84.30
2018-10-12T15:05:13.354Z,85.20
2018-10-12T15:07:42.137Z,87.80
2018-10-12T15:10:10.871Z,89.60
2018-10-12T15:12:39.650Z,90.10
2018-10-12T15:15:21.080Z,90.10
2018-10-12T15:17:50.930Z,90.20
2018-10-12T15:20:19.898Z,90.40
2018-10-12T15:22:48.554Z,91.20
2018-10-12T15:25:17.282Z,92.50
2018-10-12T15:27:46.130Z,92.60
2018-10-12T15:30:15.547Z,92.60
2018-10-12T15:32:44.239Z,93.20
2018-10-12T15:35:13.573Z,93.80
2018-10-12T15:37:43.011Z,94.50
2018-10-12T15:40:11.699Z,94.90
2018-10-12T15:42:40.873Z,95.30
2018-10-12T15:45:09.478Z,96.00
2018-10-12T15:47:38.695Z,96.60
2018-10-12T15:50:08.142Z,96.80
2018-10-12T15:52:36.989Z,96.80
2018-10-12T15:55:05.766Z,97.40
2018-10-12T15:57:34.658Z,97.90
2018-10-12T16:00:03.352Z,99.00
2018-10-12T16:02:32.084Z,99.20
2018-10-12T16:05:00.912Z,99.50
2018-10-12T16:07:29.754Z,99.90
2018-10-12T16:09:58.435Z,99.90
2018-10-12T16:12:27.124Z,99.90
2018-10-12T16:14:55.850Z,99.90
2018-10-12T16:17:24.587Z,99.90
2018-10-12T16:19:53.369Z,99.90
2018-10-12T16:22:22.209Z,99.90
2018-10-12T16:25:01.882Z,99.90
2018-10-12T16:27:30.858Z,99.90
2018-10-12T16:29:59.566Z,99.90
2018-10-12T16:32:28.234Z,99.90
2018-10-12T16:34:56.954Z,99.90
2018-10-12T16:37:25.611Z,99.90
2018-10-12T16:39:54.266Z,99.90
2018-10-12T16:42:22.995Z,99.90
2018-10-12T16:44:51.719Z,99.90
2018-10-12T16:47:20.514Z,99.90
2018-10-12T16:49:49.257Z,99.90
2018-10-12T16:52:18.386Z,99.90
2018-10-12T16:54:47.276Z,99.90
2018-10-12T16:57:16.356Z,99.90
2018-10-12T16:59:45.095Z,99.90
2018-10-12T17:02:13.842Z,99.90
2018-10-12T17:05:01.542Z,99.90
2018-10-12T17:07:30.347Z,99.90
2018-10-12T17:09:58.984Z,99.90
2018-10-12T17:12:27.681Z,99.90
2018-10-12T17:18:02.634Z,99.90
2018-10-12T17:20:31.665Z,99.90
2018-10-12T17:23:00.434Z,99.90
2018-10-12T17:25:29.226Z,99.90
2018-10-12T17:27:57.883Z,99.90
2018-10-12T17:30:27.035Z,99.90
2018-10-12T17:32:55.768Z,99.90
2018-10-12T17:35:24.491Z,99.90
2018-10-12T17:37:53.190Z,99.90
2018-10-12T17:40:21.964Z,99.90
2018-10-12T17:42:50.763Z,99.90
2018-10-12T17:45:19.537Z,99.90
2018-10-12T17:47:48.324Z,99.90
2018-10-12T17:50:17.038Z,99.90
2018-10-12T17:52:45.774Z,99.90
2018-10-12T17:55:14.701Z,99.90
2018-10-12T17:57:43.522Z,99.90
2018-10-12T18:00:12.433Z,99.90
2018-10-12T18:02:41.222Z,99.90
2018-10-12T18:05:10.026Z,99.90
2018-10-12T18:07:38.791Z,99.90
2018-10-12T18:10:09.071Z,99.90
2018-10-12T18:12:37.835Z,99.90
2018-10-12T18:15:09.426Z,99.90
2018-10-12T18:17:38.238Z,99.90
2018-10-12T18:20:07.427Z,99.90
2018-10-12T18:22:36.285Z,99.90
2018-10-12T18:25:05.855Z,99.90
2018-10-12T18:27:34.618Z,99.90
2018-10-12T18:30:03.489Z,99.90
2018-10-12T18:32:32.344Z,99.90
2018-10-12T18:35:01.339Z,99.90
2018-10-12T18:37:30.119Z,99.90
2018-10-12T18:39:58.917Z,99.90
2018-10-12T18:42:27.673Z,99.90
2018-10-12T18:44:56.756Z,99.90
2018-10-12T18:47:25.636Z,99.90
2018-10-12T18:49:54.466Z,99.90
2018-10-12T18:52:23.294Z,99.90
2018-10-12T18:54:52.088Z,99.90
2018-10-12T18:57:20.843Z,99.90
2018-10-12T18:59:49.687Z,99.90
2018-10-12T19:02:18.504Z,99.90
2018-10-12T19:04:47.412Z,99.90
2018-10-12T19:07:16.084Z,99.90
2018-10-12T19:09:44.964Z,99.90
2018-10-12T19:12:13.715Z,99.90
2018-10-12T19:14:42.524Z,99.90
2018-10-12T19:17:11.310Z,99.90
2018-10-12T19:19:40.228Z,99.90
2018-10-12T19:22:08.995Z,99.90
2018-10-12T19:24:37.791Z,99.90
2018-10-12T19:27:06.748Z,99.90
2018-10-12T19:29:35.519Z,99.90
2018-10-12T19:32:04.332Z,99.90
2018-10-12T19:34:33.101Z,99.90
2018-10-12T19:37:01.816Z,99.90
2018-10-12T19:39:30.535Z,99.90
2018-10-12T19:41:59.382Z,99.90
2018-10-12T19:44:28.147Z,99.90
2018-10-12T19:46:56.883Z,99.90
2018-10-12T19:49:25.632Z,99.90
2018-10-12T19:51:54.343Z,99.90
2018-10-12T19:54:23.047Z,99.90
2018-10-12T19:56:51.766Z,99.90
2018-10-12T19:59:20.475Z,99.90
2018-10-12T20:01:49.311Z,99.90
2018-10-12T20:04:18.078Z,99.90
2018-10-12T20:06:46.830Z,99.90
2018-10-12T20:09:15.575Z,99.90
2018-10-12T20:11:44.316Z,99.90
2018-10-12T20:14:13.075Z,99.90
2018-10-12T20:16:41.827Z,99.90
2018-10-12T20:19:10.563Z,99.90
2018-10-12T20:21:39.311Z,99.90
2018-10-12T20:24:08.544Z,99.90
2018-10-12T20:26:37.268Z,99.90
2018-10-12T20:29:06.113Z,99.90
2018-10-12T20:31:34.929Z,99.90
2018-10-12T20:34:03.719Z,99.90
2018-10-12T20:36:32.482Z,99.90
2018-10-12T20:39:01.288Z,99.90
2018-10-12T20:41:30.054Z,99.90
2018-10-12T20:43:58.842Z,99.90
2018-10-12T20:46:27.616Z,99.90
2018-10-12T20:48:56.429Z,99.90
2018-10-12T20:51:25.249Z,99.90
2018-10-12T20:53:54.060Z,99.90
2018-10-12T20:56:22.806Z,99.90
2018-10-12T20:58:51.525Z,99.90
2018-10-12T21:01:20.246Z,99.90
2018-10-12T21:03:53.946Z,99.90
2018-10-12T21:06:22.682Z,99.90
2018-10-12T21:08:51.430Z,99.90
2018-10-12T21:11:20.245Z,99.90
2018-10-12T21:13:49.139Z,99.90
2018-10-12T21:16:17.939Z,99.90
2018-10-12T21:18:46.740Z,99.90
2018-10-12T21:21:15.675Z,99.90
2018-10-12T21:23:44.527Z,99.90
2018-10-12T21:26:13.303Z,99.90
2018-10-12T21:28:42.072Z,99.90
2018-10-12T21:31:10.915Z,99.90
2018-10-12T21:33:39.796Z,99.90
2018-10-12T21:36:08.739Z,99.90
2018-10-12T21:38:37.503Z,99.90
2018-10-12T21:41:06.256Z,99.90
2018-10-12T21:43:35.070Z,99.90
2018-10-12T21:46:03.946Z,99.90
2018-10-12T21:48:32.690Z,99.90
2018-10-12T21:51:01.374Z,99.90
2018-10-12T21:53:30.126Z,99.90
2018-10-12T21:55:58.899Z,99.90
2018-10-12T21:58:27.653Z,99.90
2018-10-12T22:01:01.951Z,99.90
2018-10-12T22:03:30.918Z,99.90
2018-10-12T22:05:59.602Z,99.90
2018-10-12T22:08:33.760Z,99.90
2018-10-12T22:11:02.684Z,99.90
2018-10-12T22:13:31.615Z,99.90
2018-10-12T22:16:00.384Z,99.90
2018-10-12T22:18:29.274Z,99.90
2018-10-12T22:20:58.070Z,99.90
2018-10-12T22:23:27.375Z,99.90
2018-10-12T22:25:56.185Z,99.90
2018-10-12T22:28:24.940Z,99.90
2018-10-12T22:30:53.645Z,99.90
2018-10-12T22:33:22.379Z,99.90
2018-10-12T22:35:51.292Z,99.90
2018-10-12T22:38:20.061Z,99.90
2018-10-12T22:40:48.868Z,99.90
2018-10-12T22:43:17.877Z,99.90
2018-10-12T22:45:46.682Z,99.90
2018-10-12T22:48:15.471Z,99.90
2018-10-12T22:50:44.357Z,99.90
2018-10-12T22:53:13.124Z,99.90
2018-10-12T22:55:41.854Z,99.90
2018-10-12T22:58:10.562Z,99.90
2018-10-12T23:00:39.291Z,99.90
2018-10-12T23:03:08.120Z,99.90
2018-10-12T23:05:36.847Z,99.90
2018-10-12T23:08:05.847Z,99.90
2018-10-12T23:10:34.571Z,99.90
2018-10-12T23:13:03.389Z,99.90
2018-10-12T23:15:32.088Z,99.90
2018-10-12T23:18:00.835Z,99.90
2018-10-12T23:20:29.678Z,99.90
2018-10-12T23:22:58.466Z,99.90
2018-10-12T23:25:27.193Z,99.90
2018-10-12T23:27:55.906Z,99.90
2018-10-12T23:30:24.751Z,99.90
2018-10-12T23:32:53.625Z,99.90
2018-10-12T23:35:22.306Z,99.90
2018-10-12T23:37:51.011Z,99.90
2018-10-12T23:40:19.820Z,99.90
2018-10-12T23:42:48.548Z,99.90
2018-10-12T23:45:17.288Z,99.90
2018-10-12T23:47:45.971Z,99.90
2018-10-12T23:50:14.675Z,99.90
2018-10-12T23:52:43.483Z,99.90
2018-10-12T23:55:12.218Z,99.90
2018-10-12T23:57:40.992Z,99.90
